createdAt,value
2023-08-12T00:00:40.611Z,101625.00
2023-08-12T00:03:07.222Z,101622.00
2023-08-12T00:05:34.078Z,101623.00
2023-08-12T00:08:00.868Z,101628.00
2023-08-12T00:10:27.374Z,101624.00
2023-08-12T00:12:54.043Z,101624.00
2023-08-12T00:15:20.589Z,101618.00
2023-08-12T00:17:48.269Z,101618.00
2023-08-12T00:20:15.164Z,101627.00
2023-08-12T00:22:42.077Z,101622.00
2023-08-12T00:25:09.464Z,101621.00
2023-08-12T00:27:35.985Z,101626.00
2023-08-12T00:30:02.789Z,101617.00
2023-08-12T00:32:29.461Z,101604.00
2023-08-12T00:34:57.013Z,101613.00
2023-08-12T00:37:23.727Z,101608.00
2023-08-12T00:39:50.285Z,101605.00
2023-08-12T00:42:16.816Z,101607.00
2023-08-12T00:44:43.317Z,101600.00
2023-08-12T00:47:10.221Z,101597.00
2023-08-12T00:49:38.610Z,101596.00
2023-08-12T00:52:05.437Z,101592.00
2023-08-12T00:54:32.414Z,101592.00
2023-08-12T00:56:59.338Z,101582.00
2023-08-12T00:59:26.801Z,101572.00
2023-08-12T01:01:53.548Z,101570.00
2023-08-12T01:04:20.554Z,101569.00
2023-08-12T01:06:47.235Z,101563.00
2023-08-12T01:09:13.809Z,101565.00
2023-08-12T01:11:50.043Z,101564.00
2023-08-12T01:14:28.280Z,101559.00
2023-08-12T01:17:00.447Z,101560.00
2023-08-12T01:19:40.901Z,101567.00
2023-08-12T01:22:10.804Z,101561.00
2023-08-12T01:24:39.388Z,101564.00
2023-08-12T01:27:06.877Z,101558.00
2023-08-12T01:29:35.996Z,101558.00
2023-08-12T01:32:23.072Z,101555.00
2023-08-12T01:35:02.055Z,101548.00
2023-08-12T01:37:30.479Z,101546.00
2023-08-12T01:39:59.888Z,101537.00
2023-08-12T01:42:29.883Z,101539.00
2023-08-12T01:44:57.023Z,101542.00
2023-08-12T01:47:23.674Z,101540.00
2023-08-12T01:49:50.258Z,101545.00
2023-08-12T01:52:17.115Z,101539.00
2023-08-12T01:54:43.605Z,101535.00
2023-08-12T01:57:10.741Z,101538.00
2023-08-12T01:59:37.844Z,101526.00
2023-08-12T02:02:04.577Z,101520.00
2023-08-12T02:04:31.286Z,101511.00
2023-08-12T02:06:58.180Z,101510.00
2023-08-12T02:09:24.858Z,101515.00
2023-08-12T02:11:51.350Z,101516.00
2023-08-12T02:14:18.197Z,101519.00
2023-08-12T02:16:44.726Z,101514.00
2023-08-12T02:19:11.279Z,101510.00
2023-08-12T02:21:37.941Z,101505.00
2023-08-12T02:24:04.611Z,101505.00
2023-08-12T02:26:31.687Z,101498.00
2023-08-12T02:28:58.303Z,101492.00
2023-08-12T02:31:24.867Z,101494.00
2023-08-12T02:33:51.715Z,101490.00
2023-08-12T02:36:18.459Z,101489.00
2023-08-12T02:38:45.165Z,101490.00
2023-08-12T02:41:11.736Z,101486.00
2023-08-12T02:43:38.288Z,101472.00
2023-08-12T02:46:05.086Z,101481.00
2023-08-12T02:48:31.697Z,101475.00
2023-08-12T02:50:58.241Z,101485.00
2023-08-12T02:53:24.723Z,101467.00
2023-08-12T02:55:51.403Z,101471.00
2023-08-12T02:58:17.979Z,101479.00
2023-08-12T03:00:47.350Z,101472.00
2023-08-12T03:03:14.070Z,101481.00
2023-08-12T03:05:42.039Z,101473.00
2023-08-12T03:08:08.596Z,101476.00
2023-08-12T03:10:35.678Z,101471.00
2023-08-12T03:13:02.451Z,101466.00
2023-08-12T03:15:29.195Z,101471.00
2023-08-12T03:17:57.266Z,101459.00
2023-08-12T03:20:23.880Z,101456.00
2023-08-12T03:22:50.423Z,101458.00
2023-08-12T03:25:17.150Z,101447.00
2023-08-12T03:27:43.682Z,101449.00
2023-08-12T03:30:12.557Z,101451.00
2023-08-12T03:32:39.149Z,101450.00
2023-08-12T03:35:05.871Z,101441.00
2023-08-12T03:37:32.663Z,101437.00
2023-08-12T03:39:59.312Z,101442.00
2023-08-12T03:42:25.840Z,101448.00
2023-08-12T03:44:52.676Z,101452.00
2023-08-12T03:47:23.057Z,101442.00
2023-08-12T03:49:49.700Z,101438.00
2023-08-12T03:52:16.240Z,101444.00
2023-08-12T03:54:43.808Z,101434.00
2023-08-12T03:57:10.744Z,101436.00
2023-08-12T03:59:37.503Z,101429.00
2023-08-12T04:02:05.169Z,101430.00
2023-08-12T04:04:31.787Z,101420.00
2023-08-12T04:06:58.420Z,101414.00
2023-08-12T04:09:25.024Z,101420.00
2023-08-12T04:11:51.941Z,101414.00
2023-08-12T04:14:18.454Z,101416.00
2023-08-12T04:16:44.998Z,101416.00
2023-08-12T04:19:11.542Z,101412.00
2023-08-12T04:21:38.042Z,101410.00
2023-08-12T04:24:05.009Z,101410.00
2023-08-12T04:26:31.837Z,101402.00
2023-08-12T04:28:58.340Z,101401.00
2023-08-12T04:31:24.888Z,101397.00
2023-08-12T04:33:53.886Z,101392.00
2023-08-12T04:36:20.893Z,101405.00
2023-08-12T04:38:47.726Z,101392.00
2023-08-12T04:41:14.340Z,101404.00
2023-08-12T04:43:40.947Z,101410.00
2023-08-12T04:46:07.745Z,101409.00
2023-08-12T04:48:34.290Z,101404.00
2023-08-12T04:51:02.725Z,101400.00
2023-08-12T04:53:29.671Z,101408.00
2023-08-12T04:55:57.104Z,101399.00
2023-08-12T04:58:23.585Z,101413.00
2023-08-12T05:00:51.373Z,101403.00
2023-08-12T05:03:17.933Z,101395.00
2023-08-12T05:05:44.531Z,101397.00
2023-08-12T05:08:11.360Z,101396.00
2023-08-12T05:10:37.859Z,101396.00
2023-08-12T05:13:04.462Z,101393.00
2023-08-12T05:15:31.023Z,101386.00
2023-08-12T05:17:57.575Z,101383.00
2023-08-12T05:20:24.162Z,101376.00
2023-08-12T05:22:50.728Z,101377.00
2023-08-12T05:25:17.225Z,101378.00
2023-08-12T05:27:44.017Z,101385.00
2023-08-12T05:30:10.923Z,101382.00
2023-08-12T05:32:37.605Z,101376.00
2023-08-12T05:35:04.307Z,101376.00
2023-08-12T05:37:30.919Z,101386.00
2023-08-12T05:39:57.580Z,101381.00
2023-08-12T05:42:24.218Z,101384.00
2023-08-12T05:44:50.766Z,101369.00
2023-08-12T05:47:17.481Z,101377.00
2023-08-12T05:49:44.193Z,101386.00
2023-08-12T05:52:11.610Z,101377.00
2023-08-12T05:54:38.416Z,101378.00
2023-08-12T05:57:05.094Z,101379.00
2023-08-12T05:59:32.076Z,101374.00
2023-08-12T06:01:59.787Z,101379.00
2023-08-12T06:04:26.441Z,101389.00
2023-08-12T06:06:53.284Z,101383.00
2023-08-12T06:09:19.990Z,101379.00
2023-08-12T06:11:46.552Z,101386.00
2023-08-12T06:14:13.064Z,101384.00
2023-08-12T06:16:39.566Z,101372.00
2023-08-12T06:19:06.473Z,101378.00
2023-08-12T06:21:33.007Z,101374.00
2023-08-12T06:23:59.511Z,101377.00
2023-08-12T06:26:26.074Z,101370.00
2023-08-12T06:28:53.628Z,101379.00
2023-08-12T06:31:20.127Z,101370.00
2023-08-12T06:33:49.743Z,101372.00
2023-08-12T06:36:16.301Z,101368.00
2023-08-12T06:38:42.941Z,101369.00
2023-08-12T06:41:09.495Z,101360.00
2023-08-12T06:43:36.553Z,101347.00
2023-08-12T06:46:03.299Z,101347.00
2023-08-12T06:48:30.130Z,101342.00
2023-08-12T06:50:57.983Z,101357.00
2023-08-12T06:53:27.018Z,101357.00
2023-08-12T06:55:53.604Z,101359.00
2023-08-12T06:58:20.097Z,101370.00
2023-08-12T07:00:48.178Z,101367.00
2023-08-12T07:03:14.794Z,101368.00
2023-08-12T07:05:41.389Z,101365.00
2023-08-12T07:08:07.966Z,101366.00
2023-08-12T07:10:34.528Z,101359.00
2023-08-12T07:13:01.053Z,101348.00
2023-08-12T07:15:27.746Z,101345.00
2023-08-12T07:17:54.313Z,101344.00
2023-08-12T07:20:20.981Z,101343.00
2023-08-12T07:22:47.811Z,101329.00
2023-08-12T07:25:14.357Z,101325.00
2023-08-12T07:27:40.874Z,101329.00
2023-08-12T07:30:09.726Z,101347.00
2023-08-12T07:32:38.748Z,101350.00
2023-08-12T07:35:07.129Z,101349.00
2023-08-12T07:37:33.826Z,101359.00
2023-08-12T07:40:00.374Z,101362.00
2023-08-12T07:42:27.172Z,101355.00
2023-08-12T07:44:53.884Z,101364.00
2023-08-12T07:47:20.744Z,101362.00
2023-08-12T07:49:47.356Z,101369.00
2023-08-12T07:52:14.476Z,101368.00
2023-08-12T07:54:41.456Z,101369.00
2023-08-12T07:57:08.022Z,101363.00
2023-08-12T07:59:34.640Z,101367.00
2023-08-12T08:02:01.634Z,101363.00
2023-08-12T08:04:28.231Z,101363.00
2023-08-12T08:06:54.864Z,101361.00
2023-08-12T08:09:21.368Z,101362.00
2023-08-12T08:11:49.984Z,101368.00
2023-08-12T08:14:16.731Z,101370.00
2023-08-12T08:16:43.398Z,101367.00
2023-08-12T08:19:13.320Z,101368.00
2023-08-12T08:21:40.869Z,101370.00
2023-08-12T08:24:07.905Z,101377.00
2023-08-12T08:26:34.579Z,101369.00
2023-08-12T08:29:01.118Z,101366.00
2023-08-12T08:31:27.686Z,101372.00
2023-08-12T08:33:54.448Z,101370.00
2023-08-12T08:36:20.947Z,101373.00
2023-08-12T08:38:47.509Z,101373.00
2023-08-12T08:41:15.638Z,101371.00
2023-08-12T08:43:48.249Z,101371.00
2023-08-12T08:46:17.071Z,101372.00
2023-08-12T09:10:51.634Z,101321.00
2023-08-12T09:13:38.243Z,101328.00
2023-08-12T09:16:05.612Z,101341.00
2023-08-12T09:18:33.730Z,101345.00
2023-08-12T09:21:03.512Z,101350.00
2023-08-12T09:23:35.846Z,101350.00
2023-08-12T09:26:02.783Z,101336.00
2023-08-12T09:28:29.922Z,101332.00
2023-08-12T09:30:57.788Z,101361.00
2023-08-12T09:33:27.992Z,101359.00
2023-08-12T09:35:55.208Z,101351.00
2023-08-12T09:38:22.811Z,101359.00
2023-08-12T09:40:49.688Z,101348.00
2023-08-12T09:43:17.868Z,101334.00
2023-08-12T09:45:47.015Z,101325.00
2023-08-12T09:48:15.787Z,101310.00
2023-08-12T09:50:44.600Z,101303.00
2023-08-12T09:53:11.262Z,101314.00
2023-08-12T09:55:41.171Z,101321.00
2023-08-12T09:58:10.483Z,101312.00
2023-08-12T10:00:37.486Z,101328.00
2023-08-12T10:03:05.846Z,101317.00
2023-08-12T10:05:33.859Z,101319.00
2023-08-12T10:08:02.935Z,101326.00
2023-08-12T10:10:31.105Z,101320.00
2023-08-12T10:12:59.414Z,101317.00
2023-08-12T10:15:26.565Z,101309.00
2023-08-12T10:17:55.563Z,101306.00
2023-08-12T10:20:24.613Z,101307.00
2023-08-12T10:22:53.035Z,101306.00
2023-08-12T10:25:23.135Z,101311.00
2023-08-12T10:27:50.412Z,101304.00
2023-08-12T10:30:19.398Z,101281.00
2023-08-12T10:32:50.268Z,101286.00
2023-08-12T10:35:16.866Z,101286.00
2023-08-12T10:37:48.906Z,101273.00
2023-08-12T10:40:24.329Z,101273.00
2023-08-12T10:42:51.808Z,101269.00
2023-08-12T10:45:19.427Z,101282.00
2023-08-12T10:48:10.603Z,101277.00
2023-08-12T10:50:37.609Z,101274.00
2023-08-12T10:54:08.468Z,101275.00
2023-08-12T10:57:04.521Z,101287.00
2023-08-12T10:59:47.044Z,101292.00
2023-08-12T11:02:24.604Z,101292.00
2023-08-12T11:04:55.558Z,101286.00
2023-08-12T11:07:50.573Z,101278.00
2023-08-12T11:10:20.026Z,101282.00
2023-08-12T11:12:55.469Z,101275.00
2023-08-12T11:15:36.280Z,101277.00
2023-08-12T11:18:07.510Z,101275.00
2023-08-12T11:20:38.255Z,101279.00
2023-08-12T11:23:13.014Z,101287.00
2023-08-12T11:25:43.377Z,101276.00
2023-08-12T11:28:10.460Z,101276.00
2023-08-12T11:30:37.955Z,101274.00
2023-08-12T11:33:11.574Z,101280.00
2023-08-12T11:35:47.067Z,101285.00
2023-08-12T11:38:15.057Z,101280.00
2023-08-12T11:40:45.361Z,101274.00
2023-08-12T11:43:12.594Z,101288.00
2023-08-12T11:45:43.303Z,101310.00
2023-08-12T11:48:11.071Z,101308.00
2023-08-12T11:50:38.004Z,101303.00
2023-08-12T11:53:08.492Z,101310.00
2023-08-12T11:55:44.504Z,101308.00
2023-08-12T11:58:12.781Z,101317.00
2023-08-12T12:00:39.773Z,101309.00
2023-08-12T12:03:09.904Z,101314.00
2023-08-12T12:05:40.345Z,101313.00
2023-08-12T12:08:10.263Z,101309.00
2023-08-12T12:10:39.303Z,101307.00
2023-08-12T12:13:07.241Z,101304.00
2023-08-12T12:15:43.606Z,101300.00
2023-08-12T12:18:14.198Z,101304.00
2023-08-12T12:21:02.932Z,101297.00
2023-08-12T12:23:30.488Z,101275.00
2023-08-12T12:26:06.893Z,101259.00
2023-08-12T12:28:34.984Z,101262.00
2023-08-12T12:31:03.283Z,101235.00
2023-08-12T12:33:30.089Z,101219.00
2023-08-12T12:36:00.981Z,101232.00
2023-08-12T12:38:30.616Z,101231.00
2023-08-12T12:41:01.668Z,101221.00
2023-08-12T12:43:28.248Z,101217.00
2023-08-12T12:45:55.209Z,101210.00
2023-08-12T12:48:22.012Z,101199.00
2023-08-12T12:50:48.858Z,101171.00
2023-08-12T12:53:15.664Z,101179.00
2023-08-12T12:55:42.402Z,101175.00
2023-08-12T12:58:12.691Z,101182.00
2023-08-12T13:00:39.839Z,101177.00
2023-08-12T13:03:07.233Z,101181.00
2023-08-12T13:05:33.892Z,101172.00
2023-08-12T13:08:00.756Z,101171.00
2023-08-12T13:10:27.455Z,101168.00
2023-08-12T13:12:56.272Z,101160.00
2023-08-12T13:15:25.439Z,101164.00
2023-08-12T13:17:52.194Z,101158.00
2023-08-12T13:20:19.360Z,101145.00
2023-08-12T13:22:46.162Z,101150.00
2023-08-12T13:25:13.612Z,101162.00
2023-08-12T13:27:45.043Z,101161.00
2023-08-12T13:30:14.499Z,101158.00
2023-08-12T13:32:41.271Z,101165.00
2023-08-12T13:35:09.808Z,101156.00
2023-08-12T13:37:36.878Z,101138.00
2023-08-12T13:40:06.249Z,101138.00
2023-08-12T13:42:33.500Z,101136.00
2023-08-12T13:45:01.048Z,101130.00
2023-08-12T13:47:27.970Z,101102.00
2023-08-12T13:49:58.562Z,101115.00
2023-08-12T13:52:25.391Z,101100.00
2023-08-12T13:54:52.041Z,101116.00
2023-08-12T13:57:18.617Z,101124.00
2023-08-12T13:59:45.281Z,101136.00
2023-08-12T14:02:17.136Z,101140.00
2023-08-12T14:04:43.986Z,101134.00
2023-08-12T14:07:10.621Z,101131.00
2023-08-12T14:09:37.199Z,101129.00
2023-08-12T14:12:04.454Z,101130.00
2023-08-12T14:14:32.067Z,101083.00
2023-08-12T14:16:59.185Z,101102.00
2023-08-12T14:19:27.499Z,101124.00
2023-08-12T14:21:54.230Z,101123.00
2023-08-12T14:24:20.878Z,101122.00
2023-08-12T14:26:47.523Z,101122.00
2023-08-12T14:29:14.140Z,101126.00
2023-08-12T14:31:41.123Z,101118.00
2023-08-12T14:34:07.782Z,101118.00
2023-08-12T14:36:34.633Z,101124.00
2023-08-12T14:39:01.541Z,101123.00
2023-08-12T14:41:28.278Z,101129.00
2023-08-12T14:43:55.235Z,101104.00
2023-08-12T14:46:22.073Z,101102.00
2023-08-12T14:48:48.837Z,101073.00
2023-08-12T14:51:15.614Z,101108.00
2023-08-12T14:53:42.312Z,101099.00
2023-08-12T14:56:08.952Z,101113.00
2023-08-12T14:58:35.855Z,101112.00
2023-08-12T15:01:04.087Z,101105.00
2023-08-12T15:03:31.617Z,101109.00
2023-08-12T15:06:02.412Z,101096.00
2023-08-12T15:08:29.709Z,101099.00
2023-08-12T15:10:58.432Z,101102.00
2023-08-12T15:13:26.830Z,101090.00
2023-08-12T15:15:53.919Z,101094.00
2023-08-12T15:18:20.642Z,101096.00
2023-08-12T15:20:49.131Z,101091.00
2023-08-12T15:23:15.855Z,101081.00
2023-08-12T15:25:46.085Z,101079.00
2023-08-12T15:28:13.454Z,101077.00
2023-08-12T15:30:40.824Z,101063.00
2023-08-12T15:33:08.736Z,101052.00
2023-08-12T15:35:35.427Z,101043.00
2023-08-12T15:38:02.840Z,101037.00
2023-08-12T15:40:30.010Z,101034.00
2023-08-12T15:42:56.584Z,101045.00
2023-08-12T15:45:23.425Z,101057.00
2023-08-12T15:47:50.290Z,101045.00
2023-08-12T15:50:17.176Z,101054.00
2023-08-12T15:52:45.915Z,101066.00
2023-08-12T15:55:12.788Z,101068.00
2023-08-12T15:57:39.858Z,101065.00
2023-08-12T16:00:09.904Z,101069.00
2023-08-12T16:02:36.978Z,101061.00
2023-08-12T16:05:03.928Z,101061.00
2023-08-12T16:07:30.564Z,101060.00
2023-08-12T16:09:57.312Z,101052.00
2023-08-12T16:12:26.014Z,101054.00
2023-08-12T16:14:52.686Z,101043.00
2023-08-12T16:17:19.563Z,101045.00
2023-08-12T16:19:46.770Z,101043.00
2023-08-12T16:22:15.808Z,101040.00
2023-08-12T16:24:42.778Z,101038.00
2023-08-12T16:27:09.847Z,101028.00
2023-08-12T16:29:36.623Z,101024.00
2023-08-12T16:32:03.999Z,101013.00
2023-08-12T16:34:30.820Z,101015.00
2023-08-12T16:37:18.219Z,101012.00
2023-08-12T16:39:45.309Z,101009.00
2023-08-12T16:42:13.324Z,101009.00
2023-08-12T16:44:40.147Z,100992.00
2023-08-12T16:47:06.791Z,100996.00
2023-08-12T16:49:33.925Z,100991.00
2023-08-12T16:52:00.659Z,100985.00
2023-08-12T16:54:27.401Z,100985.00
2023-08-12T16:56:56.368Z,100988.00
2023-08-12T16:59:23.027Z,100997.00
2023-08-12T17:01:50.575Z,101003.00
2023-08-12T17:04:17.374Z,101004.00
2023-08-12T17:06:44.434Z,101015.00
2023-08-12T17:09:17.297Z,101008.00
2023-08-12T17:11:45.134Z,101017.00
2023-08-12T17:14:12.381Z,101028.00
2023-08-12T17:16:40.904Z,101016.00
2023-08-12T17:19:07.730Z,101022.00
2023-08-12T17:21:37.198Z,101012.00
2023-08-12T17:24:04.756Z,101027.00
2023-08-12T17:26:31.504Z,101016.00
2023-08-12T17:28:58.307Z,101015.00
2023-08-12T17:31:25.040Z,101012.00
2023-08-12T17:33:51.847Z,101019.00
2023-08-12T17:36:18.787Z,101016.00
2023-08-12T17:38:45.696Z,101012.00
2023-08-12T17:41:12.714Z,101011.00
2023-08-12T17:43:40.081Z,101010.00
2023-08-12T17:46:06.916Z,101019.00
2023-08-12T17:48:34.282Z,101026.00
2023-08-12T17:51:01.230Z,101029.00
2023-08-12T17:53:28.918Z,101028.00
2023-08-12T17:55:55.622Z,101018.00
2023-08-12T17:58:22.789Z,101018.00
2023-08-12T18:00:49.851Z,101026.00
2023-08-12T18:03:18.286Z,101030.00
2023-08-12T18:05:45.948Z,101021.00
2023-08-12T18:08:13.467Z,101027.00
2023-08-12T18:10:40.490Z,101027.00
2023-08-12T18:13:07.587Z,101025.00
2023-08-12T18:15:34.757Z,101022.00
2023-08-12T18:18:03.316Z,101042.00
2023-08-12T18:20:30.473Z,101029.00
2023-08-12T18:22:57.422Z,101042.00
2023-08-12T18:25:25.200Z,101043.00
2023-08-12T18:27:52.149Z,101040.00
2023-08-12T18:30:18.991Z,101040.00
2023-08-12T18:32:45.994Z,101051.00
2023-08-12T18:35:12.935Z,101052.00
2023-08-12T18:37:39.590Z,101048.00
2023-08-12T18:40:08.897Z,101047.00
2023-08-12T18:42:37.017Z,101049.00
2023-08-12T18:45:04.941Z,101055.00
2023-08-12T18:47:34.060Z,101064.00
2023-08-12T18:50:01.757Z,101067.00
2023-08-12T18:52:28.836Z,101075.00
2023-08-12T18:54:56.405Z,101081.00
2023-08-12T18:57:23.140Z,101103.00
2023-08-12T18:59:51.032Z,101089.00
2023-08-12T19:02:21.284Z,101088.00
2023-08-12T19:04:47.944Z,101088.00
2023-08-12T19:07:14.684Z,101075.00
2023-08-12T19:09:43.625Z,101069.00
2023-08-12T19:12:11.180Z,101071.00
2023-08-12T19:14:37.727Z,101074.00
2023-08-12T19:17:04.678Z,101075.00
2023-08-12T19:19:33.382Z,101090.00
2023-08-12T19:22:00.247Z,101090.00
2023-08-12T19:24:30.698Z,101081.00
2023-08-12T19:26:58.479Z,101086.00
2023-08-12T19:29:25.404Z,101076.00
2023-08-12T19:31:52.079Z,101090.00
2023-08-12T19:34:19.582Z,101088.00
2023-08-12T19:36:46.440Z,101082.00
2023-08-12T19:39:15.376Z,101087.00
2023-08-12T19:41:42.144Z,101084.00
2023-08-12T19:44:10.565Z,101090.00
2023-08-12T19:46:37.376Z,101086.00
2023-08-12T19:49:04.535Z,101095.00
2023-08-12T19:51:31.073Z,101087.00
2023-08-12T19:53:57.786Z,101085.00
2023-08-12T19:56:25.672Z,101091.00
2023-08-12T19:58:53.366Z,101087.00
2023-08-12T20:01:21.126Z,101093.00
2023-08-12T20:03:47.763Z,101092.00
2023-08-12T20:06:14.398Z,101095.00
2023-08-12T20:08:41.558Z,101109.00
2023-08-12T20:11:08.223Z,101116.00
2023-08-12T20:13:35.176Z,101127.00
2023-08-12T20:16:02.316Z,101125.00
2023-08-12T20:18:28.920Z,101128.00
2023-08-12T20:20:55.822Z,101123.00
2023-08-12T20:23:22.389Z,101127.00
2023-08-12T20:25:54.044Z,101128.00
2023-08-12T20:28:20.946Z,101127.00
2023-08-12T20:30:48.730Z,101127.00
2023-08-12T20:33:15.568Z,101135.00
2023-08-12T20:35:42.231Z,101131.00
2023-08-12T20:38:09.033Z,101130.00
2023-08-12T20:40:35.876Z,101128.00
2023-08-12T20:43:02.461Z,101128.00
2023-08-12T20:45:29.262Z,101139.00
2023-08-12T20:47:55.910Z,101137.00
2023-08-12T20:50:22.532Z,101141.00
2023-08-12T20:52:49.030Z,101133.00
2023-08-12T20:55:15.712Z,101140.00
2023-08-12T20:57:42.463Z,101150.00
2023-08-12T21:00:12.636Z,101140.00
2023-08-12T21:02:41.135Z,101143.00
2023-08-12T21:05:07.793Z,101140.00
2023-08-12T21:07:34.392Z,101144.00
2023-08-12T21:10:02.540Z,101146.00
2023-08-12T21:12:29.345Z,101147.00
2023-08-12T21:14:56.901Z,101140.00
2023-08-12T21:17:23.586Z,101145.00
2023-08-12T21:19:52.401Z,101153.00
2023-08-12T21:22:18.966Z,101151.00
2023-08-12T21:24:45.732Z,101156.00
2023-08-12T21:27:12.381Z,101154.00
2023-08-12T21:29:39.333Z,101150.00
2023-08-12T21:32:05.970Z,101156.00
2023-08-12T21:34:32.773Z,101162.00
2023-08-12T21:36:59.800Z,101166.00
2023-08-12T21:39:26.359Z,101165.00
2023-08-12T21:41:52.900Z,101168.00
2023-08-12T21:44:20.272Z,101170.00
2023-08-12T21:46:46.955Z,101177.00
2023-08-12T21:49:14.241Z,101176.00
2023-08-12T21:51:40.882Z,101169.00
2023-08-12T21:54:07.650Z,101172.00
2023-08-12T21:56:34.477Z,101184.00
2023-08-12T21:59:00.986Z,101177.00
2023-08-12T22:01:27.719Z,101183.00
2023-08-12T22:03:54.590Z,101182.00
2023-08-12T22:06:21.401Z,101185.00
2023-08-12T22:08:48.948Z,101187.00
2023-08-12T22:11:15.648Z,101180.00
2023-08-12T22:13:42.696Z,101179.00
2023-08-12T22:16:09.546Z,101195.00
2023-08-12T22:18:37.031Z,101196.00
2023-08-12T22:21:04.627Z,101202.00
2023-08-12T22:23:31.472Z,101205.00
2023-08-12T22:26:00.534Z,101209.00
2023-08-12T22:28:27.424Z,101202.00
2023-08-12T22:30:54.699Z,101207.00
2023-08-12T22:33:21.698Z,101203.00
2023-08-12T22:35:48.539Z,101208.00
2023-08-12T22:38:15.118Z,101205.00
2023-08-12T22:40:42.688Z,101208.00
2023-08-12T22:43:09.281Z,101205.00
2023-08-12T22:45:42.293Z,101211.00
2023-08-12T22:48:09.132Z,101207.00
2023-08-12T22:50:36.000Z,101215.00
2023-08-12T22:53:03.036Z,101219.00
2023-08-12T22:55:29.835Z,101220.00
2023-08-12T22:57:56.393Z,101218.00
2023-08-12T23:00:23.299Z,101219.00
2023-08-12T23:02:50.247Z,101224.00
2023-08-12T23:05:16.895Z,101222.00
2023-08-12T23:07:43.429Z,101224.00
2023-08-12T23:10:10.950Z,101228.00
2023-08-12T23:12:37.847Z,101232.00
2023-08-12T23:15:07.120Z,101235.00
2023-08-12T23:17:35.464Z,101230.00
2023-08-12T23:20:02.396Z,101228.00
2023-08-12T23:22:29.239Z,101234.00
2023-08-12T23:24:56.152Z,101236.00
2023-08-12T23:27:22.694Z,101240.00
2023-08-12T23:29:49.241Z,101246.00
2023-08-12T23:32:16.577Z,101244.00
2023-08-12T23:34:43.576Z,101247.00
2023-08-12T23:37:10.091Z,101239.00
2023-08-12T23:39:36.661Z,101247.00
2023-08-12T23:42:03.250Z,101253.00
2023-08-12T23:44:30.112Z,101265.00
2023-08-12T23:46:56.736Z,101265.00
2023-08-12T23:49:24.811Z,101262.00
2023-08-12T23:51:51.419Z,101251.00
2023-08-12T23:54:18.715Z,101256.00
2023-08-12T23:56:45.310Z,101252.00
2023-08-12T23:59:11.880Z,101259.00
